sensor_id;sensor_type;location;lat;lon;timestamp;P1;durP1;ratioP1;P2;durP2;ratioP2
30647;SDS011;17683;53.360;9.736;2023-04-03T00:01:14;5.45;;;1.65;;
30647;SDS011;17683;53.360;9.736;2023-04-03T00:03:41;7.80;;;2.05;;
30647;SDS011;17683;53.360;9.736;2023-04-03T00:06:07;4.50;;;1.80;;
30647;SDS011;17683;53.360;9.736;2023-04-03T00:08:35;3.97;;;1.30;;
30647;SDS011;17683;53.360;9.736;2023-04-03T00:11:01;7.85;;;1.70;;
30647;SDS011;17683;53.360;9.736;2023-04-03T00:13:26;5.93;;;1.60;;
30647;SDS011;17683;53.360;9.736;2023-04-03T00:15:52;6.95;;;1.75;;
30647;SDS011;17683;53.360;9.736;2023-04-03T00:18:18;4.65;;;1.50;;
30647;SDS011;17683;53.360;9.736;2023-04-03T00:20:46;5.88;;;1.77;;
30647;SDS011;17683;53.360;9.736;2023-04-03T00:23:12;7.65;;;2.42;;
30647;SDS011;17683;53.360;9.736;2023-04-03T00:25:38;5.63;;;1.65;;
30647;SDS011;17683;53.360;9.736;2023-04-03T00:28:04;3.40;;;1.73;;
30647;SDS011;17683;53.360;9.736;2023-04-03T00:30:30;6.35;;;1.58;;
30647;SDS011;17683;53.360;9.736;2023-04-03T00:32:56;5.07;;;1.42;;
30647;SDS011;17683;53.360;9.736;2023-04-03T00:35:23;4.00;;;1.70;;
30647;SDS011;17683;53.360;9.736;2023-04-03T00:37:52;6.38;;;2.03;;
30647;SDS011;17683;53.360;9.736;2023-04-03T00:40:20;10.18;;;2.15;;
30647;SDS011;17683;53.360;9.736;2023-04-03T00:42:49;6.68;;;2.40;;
30647;SDS011;17683;53.360;9.736;2023-04-03T00:45:28;6.63;;;1.83;;
30647;SDS011;17683;53.360;9.736;2023-04-03T00:48:03;9.82;;;1.90;;
30647;SDS011;17683;53.360;9.736;2023-04-03T00:50:31;12.10;;;1.45;;
30647;SDS011;17683;53.360;9.736;2023-04-03T00:53:02;5.63;;;1.88;;
30647;SDS011;17683;53.360;9.736;2023-04-03T00:55:30;5.72;;;2.00;;
30647;SDS011;17683;53.360;9.736;2023-04-03T00:57:56;6.05;;;1.45;;
30647;SDS011;17683;53.360;9.736;2023-04-03T01:00:23;7.10;;;1.90;;
30647;SDS011;17683;53.360;9.736;2023-04-03T01:02:50;12.70;;;2.55;;
30647;SDS011;17683;53.360;9.736;2023-04-03T01:05:16;8.80;;;2.53;;
30647;SDS011;17683;53.360;9.736;2023-04-03T01:07:44;11.65;;;2.30;;
30647;SDS011;17683;53.360;9.736;2023-04-03T01:10:11;6.53;;;1.60;;
30647;SDS011;17683;53.360;9.736;2023-04-03T01:12:40;5.97;;;1.67;;
30647;SDS011;17683;53.360;9.736;2023-04-03T01:15:10;6.05;;;1.83;;
30647;SDS011;17683;53.360;9.736;2023-04-03T01:28:09;4.40;;;1.92;;
30647;SDS011;17683;53.360;9.736;2023-04-03T01:30:41;5.38;;;1.35;;
30647;SDS011;17683;53.360;9.736;2023-04-03T01:33:27;8.88;;;2.60;;
30647;SDS011;17683;53.360;9.736;2023-04-03T01:35:53;3.25;;;1.70;;
30647;SDS011;17683;53.360;9.736;2023-04-03T01:38:19;5.28;;;2.10;;
30647;SDS011;17683;53.360;9.736;2023-04-03T01:40:45;6.45;;;1.75;;
30647;SDS011;17683;53.360;9.736;2023-04-03T01:43:11;6.95;;;1.67;;
30647;SDS011;17683;53.360;9.736;2023-04-03T01:45:37;4.97;;;1.92;;
30647;SDS011;17683;53.360;9.736;2023-04-03T01:48:03;5.50;;;1.88;;
30647;SDS011;17683;53.360;9.736;2023-04-03T01:50:29;6.15;;;1.50;;
30647;SDS011;17683;53.360;9.736;2023-04-03T01:52:55;5.45;;;2.65;;
30647;SDS011;17683;53.360;9.736;2023-04-03T01:55:21;10.38;;;2.22;;
30647;SDS011;17683;53.360;9.736;2023-04-03T01:57:46;7.47;;;2.22;;
30647;SDS011;17683;53.360;9.736;2023-04-03T02:00:12;6.18;;;2.17;;
30647;SDS011;17683;53.360;9.736;2023-04-03T02:02:38;6.20;;;1.73;;
30647;SDS011;17683;53.360;9.736;2023-04-03T02:05:04;10.77;;;2.28;;
30647;SDS011;17683;53.360;9.736;2023-04-03T02:07:31;6.22;;;1.58;;
30647;SDS011;17683;53.360;9.736;2023-04-03T02:09:56;7.63;;;2.45;;
30647;SDS011;17683;53.360;9.736;2023-04-03T02:12:22;4.00;;;1.92;;
30647;SDS011;17683;53.360;9.736;2023-04-03T02:14:48;8.15;;;1.90;;
30647;SDS011;17683;53.360;9.736;2023-04-03T02:17:14;13.82;;;2.75;;
30647;SDS011;17683;53.360;9.736;2023-04-03T02:19:40;5.20;;;2.05;;
30647;SDS011;17683;53.360;9.736;2023-04-03T02:22:05;7.13;;;3.10;;
30647;SDS011;17683;53.360;9.736;2023-04-03T02:24:31;6.88;;;2.22;;
30647;SDS011;17683;53.360;9.736;2023-04-03T02:26:57;5.32;;;1.70;;
30647;SDS011;17683;53.360;9.736;2023-04-03T02:29:23;7.13;;;2.00;;
30647;SDS011;17683;53.360;9.736;2023-04-03T02:31:49;4.95;;;2.13;;
30647;SDS011;17683;53.360;9.736;2023-04-03T02:34:15;13.10;;;3.47;;
30647;SDS011;17683;53.360;9.736;2023-04-03T02:36:41;6.20;;;2.33;;
30647;SDS011;17683;53.360;9.736;2023-04-03T02:39:07;4.35;;;2.20;;
30647;SDS011;17683;53.360;9.736;2023-04-03T02:41:33;7.85;;;2.63;;
30647;SDS011;17683;53.360;9.736;2023-04-03T02:44:02;10.27;;;2.10;;
30647;SDS011;17683;53.360;9.736;2023-04-03T02:46:30;8.70;;;1.85;;
30647;SDS011;17683;53.360;9.736;2023-04-03T02:48:56;5.22;;;2.13;;
30647;SDS011;17683;53.360;9.736;2023-04-03T02:51:21;6.28;;;2.08;;
30647;SDS011;17683;53.360;9.736;2023-04-03T02:53:48;6.28;;;1.95;;
30647;SDS011;17683;53.360;9.736;2023-04-03T02:56:14;7.13;;;1.70;;
30647;SDS011;17683;53.360;9.736;2023-04-03T02:58:42;6.18;;;1.95;;
30647;SDS011;17683;53.360;9.736;2023-04-03T03:01:08;5.18;;;1.67;;
30647;SDS011;17683;53.360;9.736;2023-04-03T03:03:33;5.47;;;2.03;;
30647;SDS011;17683;53.360;9.736;2023-04-03T03:06:03;6.53;;;2.45;;
30647;SDS011;17683;53.360;9.736;2023-04-03T03:08:30;4.32;;;1.63;;
30647;SDS011;17683;53.360;9.736;2023-04-03T03:10:56;5.97;;;2.08;;
30647;SDS011;17683;53.360;9.736;2023-04-03T03:13:22;9.13;;;2.00;;
30647;SDS011;17683;53.360;9.736;2023-04-03T03:15:48;4.82;;;1.67;;
30647;SDS011;17683;53.360;9.736;2023-04-03T03:18:13;7.65;;;2.40;;
30647;SDS011;17683;53.360;9.736;2023-04-03T03:20:39;5.45;;;1.98;;
30647;SDS011;17683;53.360;9.736;2023-04-03T03:23:05;10.52;;;2.40;;
30647;SDS011;17683;53.360;9.736;2023-04-03T03:25:31;5.25;;;3.22;;
30647;SDS011;17683;53.360;9.736;2023-04-03T03:27:57;3.83;;;1.58;;
30647;SDS011;17683;53.360;9.736;2023-04-03T03:30:22;7.05;;;1.88;;
30647;SDS011;17683;53.360;9.736;2023-04-03T03:32:48;4.55;;;1.40;;
30647;SDS011;17683;53.360;9.736;2023-04-03T03:35:14;9.35;;;1.95;;
30647;SDS011;17683;53.360;9.736;2023-04-03T03:37:40;6.55;;;2.00;;
30647;SDS011;17683;53.360;9.736;2023-04-03T03:40:06;7.57;;;1.95;;
30647;SDS011;17683;53.360;9.736;2023-04-03T03:42:32;3.28;;;1.63;;
30647;SDS011;17683;53.360;9.736;2023-04-03T03:44:58;4.20;;;1.60;;
30647;SDS011;17683;53.360;9.736;2023-04-03T03:47:24;5.03;;;1.60;;
30647;SDS011;17683;53.360;9.736;2023-04-03T03:49:50;5.93;;;2.30;;
30647;SDS011;17683;53.360;9.736;2023-04-03T03:52:19;7.88;;;1.80;;
30647;SDS011;17683;53.360;9.736;2023-04-03T03:54:44;8.38;;;2.22;;
30647;SDS011;17683;53.360;9.736;2023-04-03T03:57:10;7.30;;;1.90;;
30647;SDS011;17683;53.360;9.736;2023-04-03T03:59:36;7.13;;;1.52;;
30647;SDS011;17683;53.360;9.736;2023-04-03T04:02:02;6.05;;;1.92;;
30647;SDS011;17683;53.360;9.736;2023-04-03T04:04:27;4.50;;;1.95;;
30647;SDS011;17683;53.360;9.736;2023-04-03T04:06:53;4.10;;;1.50;;
30647;SDS011;17683;53.360;9.736;2023-04-03T04:09:19;8.10;;;1.80;;
30647;SDS011;17683;53.360;9.736;2023-04-03T04:11:45;5.25;;;1.58;;
30647;SDS011;17683;53.360;9.736;2023-04-03T04:14:10;3.20;;;1.52;;
30647;SDS011;17683;53.360;9.736;2023-04-03T04:16:38;2.90;;;1.58;;
30647;SDS011;17683;53.360;9.736;2023-04-03T04:19:04;6.70;;;1.60;;
30647;SDS011;17683;53.360;9.736;2023-04-03T04:21:30;4.00;;;1.40;;
30647;SDS011;17683;53.360;9.736;2023-04-03T04:23:55;3.97;;;1.95;;
30647;SDS011;17683;53.360;9.736;2023-04-03T04:26:21;6.10;;;1.63;;
30647;SDS011;17683;53.360;9.736;2023-04-03T04:28:47;4.47;;;1.58;;
30647;SDS011;17683;53.360;9.736;2023-04-03T04:31:16;6.45;;;1.80;;
30647;SDS011;17683;53.360;9.736;2023-04-03T04:33:41;7.35;;;1.65;;
30647;SDS011;17683;53.360;9.736;2023-04-03T04:36:07;5.72;;;2.00;;
30647;SDS011;17683;53.360;9.736;2023-04-03T04:38:33;4.00;;;1.77;;
30647;SDS011;17683;53.360;9.736;2023-04-03T04:40:59;5.18;;;1.75;;
30647;SDS011;17683;53.360;9.736;2023-04-03T04:43:28;5.93;;;1.50;;
30647;SDS011;17683;53.360;9.736;2023-04-03T04:46:04;5.10;;;1.50;;
30647;SDS011;17683;53.360;9.736;2023-04-03T04:48:31;6.40;;;1.58;;
30647;SDS011;17683;53.360;9.736;2023-04-03T04:50:57;6.53;;;1.60;;
30647;SDS011;17683;53.360;9.736;2023-04-03T04:53:23;6.70;;;2.08;;
30647;SDS011;17683;53.360;9.736;2023-04-03T04:55:48;7.22;;;1.80;;
30647;SDS011;17683;53.360;9.736;2023-04-03T04:58:14;4.22;;;1.63;;
30647;SDS011;17683;53.360;9.736;2023-04-03T05:00:40;5.28;;;1.95;;
30647;SDS011;17683;53.360;9.736;2023-04-03T05:03:06;4.55;;;2.03;;
30647;SDS011;17683;53.360;9.736;2023-04-03T05:05:31;8.70;;;1.63;;
30647;SDS011;17683;53.360;9.736;2023-04-03T05:07:57;6.50;;;2.58;;
30647;SDS011;17683;53.360;9.736;2023-04-03T05:10:23;5.03;;;1.90;;
30647;SDS011;17683;53.360;9.736;2023-04-03T05:12:48;7.30;;;2.13;;
30647;SDS011;17683;53.360;9.736;2023-04-03T05:15:14;5.93;;;1.85;;
30647;SDS011;17683;53.360;9.736;2023-04-03T05:17:40;6.43;;;1.70;;
30647;SDS011;17683;53.360;9.736;2023-04-03T05:20:06;6.47;;;2.33;;
30647;SDS011;17683;53.360;9.736;2023-04-03T05:22:32;7.20;;;1.77;;
30647;SDS011;17683;53.360;9.736;2023-04-03T05:24:58;4.07;;;1.52;;
30647;SDS011;17683;53.360;9.736;2023-04-03T05:27:24;4.75;;;1.90;;
30647;SDS011;17683;53.360;9.736;2023-04-03T05:29:50;3.58;;;1.95;;
30647;SDS011;17683;53.360;9.736;2023-04-03T05:32:17;4.05;;;1.30;;
30647;SDS011;17683;53.360;9.736;2023-04-03T05:34:43;11.63;;;3.13;;
30647;SDS011;17683;53.360;9.736;2023-04-03T05:37:10;7.25;;;1.80;;
30647;SDS011;17683;53.360;9.736;2023-04-03T05:39:35;5.32;;;2.55;;
30647;SDS011;17683;53.360;9.736;2023-04-03T05:42:06;6.18;;;2.25;;
30647;SDS011;17683;53.360;9.736;2023-04-03T05:44:32;8.18;;;1.92;;
30647;SDS011;17683;53.360;9.736;2023-04-03T05:46:58;4.60;;;2.13;;
30647;SDS011;17683;53.360;9.736;2023-04-03T05:49:24;4.80;;;1.80;;
30647;SDS011;17683;53.360;9.736;2023-04-03T05:51:50;4.00;;;1.50;;
30647;SDS011;17683;53.360;9.736;2023-04-03T05:54:29;6.72;;;1.83;;
30647;SDS011;17683;53.360;9.736;2023-04-03T05:56:55;3.90;;;1.83;;
30647;SDS011;17683;53.360;9.736;2023-04-03T05:59:21;8.32;;;2.28;;
30647;SDS011;17683;53.360;9.736;2023-04-03T06:01:47;9.65;;;2.33;;
30647;SDS011;17683;53.360;9.736;2023-04-03T06:04:13;5.13;;;2.00;;
30647;SDS011;17683;53.360;9.736;2023-04-03T06:06:49;8.48;;;2.40;;
30647;SDS011;17683;53.360;9.736;2023-04-03T06:09:17;8.38;;;2.67;;
30647;SDS011;17683;53.360;9.736;2023-04-03T06:11:44;9.73;;;2.65;;
30647;SDS011;17683;53.360;9.736;2023-04-03T06:14:10;3.42;;;2.08;;
30647;SDS011;17683;53.360;9.736;2023-04-03T06:16:36;5.72;;;2.60;;
30647;SDS011;17683;53.360;9.736;2023-04-03T06:19:04;8.30;;;2.47;;
30647;SDS011;17683;53.360;9.736;2023-04-03T06:21:31;8.57;;;2.78;;
30647;SDS011;17683;53.360;9.736;2023-04-03T06:23:57;5.57;;;2.35;;
30647;SDS011;17683;53.360;9.736;2023-04-03T06:26:23;13.98;;;3.25;;
30647;SDS011;17683;53.360;9.736;2023-04-03T06:28:48;11.90;;;2.60;;
30647;SDS011;17683;53.360;9.736;2023-04-03T06:31:14;8.48;;;3.17;;
30647;SDS011;17683;53.360;9.736;2023-04-03T06:33:40;6.50;;;2.55;;
30647;SDS011;17683;53.360;9.736;2023-04-03T06:36:06;13.52;;;3.92;;
30647;SDS011;17683;53.360;9.736;2023-04-03T06:38:33;6.95;;;4.57;;
30647;SDS011;17683;53.360;9.736;2023-04-03T06:41:01;10.77;;;3.58;;
30647;SDS011;17683;53.360;9.736;2023-04-03T06:43:27;6.10;;;2.97;;
30647;SDS011;17683;53.360;9.736;2023-04-03T06:45:53;11.25;;;3.47;;
30647;SDS011;17683;53.360;9.736;2023-04-03T06:48:19;10.77;;;4.18;;
30647;SDS011;17683;53.360;9.736;2023-04-03T06:50:44;7.05;;;3.75;;
30647;SDS011;17683;53.360;9.736;2023-04-03T06:53:10;10.40;;;4.05;;
30647;SDS011;17683;53.360;9.736;2023-04-03T06:55:37;8.00;;;4.05;;
30647;SDS011;17683;53.360;9.736;2023-04-03T06:58:03;8.18;;;5.03;;
30647;SDS011;17683;53.360;9.736;2023-04-03T07:00:29;15.02;;;4.13;;
30647;SDS011;17683;53.360;9.736;2023-04-03T07:02:58;9.93;;;4.40;;
30647;SDS011;17683;53.360;9.736;2023-04-03T07:05:24;9.10;;;4.63;;
30647;SDS011;17683;53.360;9.736;2023-04-03T07:07:51;8.02;;;3.88;;
30647;SDS011;17683;53.360;9.736;2023-04-03T07:10:17;11.55;;;4.85;;
30647;SDS011;17683;53.360;9.736;2023-04-03T07:12:43;12.88;;;3.67;;
30647;SDS011;17683;53.360;9.736;2023-04-03T07:15:09;8.82;;;3.30;;
30647;SDS011;17683;53.360;9.736;2023-04-03T07:17:38;4.53;;;2.13;;
30647;SDS011;17683;53.360;9.736;2023-04-03T07:20:04;4.75;;;2.13;;
30647;SDS011;17683;53.360;9.736;2023-04-03T07:22:30;8.00;;;2.80;;
30647;SDS011;17683;53.360;9.736;2023-04-03T07:24:56;10.43;;;2.33;;
30647;SDS011;17683;53.360;9.736;2023-04-03T07:27:21;4.20;;;2.03;;
30647;SDS011;17683;53.360;9.736;2023-04-03T07:29:47;2.95;;;1.30;;
30647;SDS011;17683;53.360;9.736;2023-04-03T07:32:14;4.88;;;1.10;;
30647;SDS011;17683;53.360;9.736;2023-04-03T07:34:40;4.25;;;1.75;;
30647;SDS011;17683;53.360;9.736;2023-04-03T07:37:06;6.07;;;1.20;;
30647;SDS011;17683;53.360;9.736;2023-04-03T07:39:32;4.85;;;1.20;;
30647;SDS011;17683;53.360;9.736;2023-04-03T07:42:00;6.93;;;1.30;;
30647;SDS011;17683;53.360;9.736;2023-04-03T07:44:26;4.95;;;1.08;;
30647;SDS011;17683;53.360;9.736;2023-04-03T07:46:53;3.53;;;0.90;;
30647;SDS011;17683;53.360;9.736;2023-04-03T07:49:20;6.05;;;1.17;;
30647;SDS011;17683;53.360;9.736;2023-04-03T07:51:48;4.93;;;1.92;;
30647;SDS011;17683;53.360;9.736;2023-04-03T07:54:14;2.88;;;1.00;;
30647;SDS011;17683;53.360;9.736;2023-04-03T07:56:40;3.60;;;0.95;;
30647;SDS011;17683;53.360;9.736;2023-04-03T07:59:07;3.63;;;1.00;;
30647;SDS011;17683;53.360;9.736;2023-04-03T08:01:34;4.13;;;1.10;;
30647;SDS011;17683;53.360;9.736;2023-04-03T08:03:59;2.33;;;1.13;;
30647;SDS011;17683;53.360;9.736;2023-04-03T08:06:25;7.45;;;1.33;;
30647;SDS011;17683;53.360;9.736;2023-04-03T08:08:51;4.20;;;1.08;;
30647;SDS011;17683;53.360;9.736;2023-04-03T08:11:17;6.97;;;1.45;;
30647;SDS011;17683;53.360;9.736;2023-04-03T08:13:44;4.45;;;1.10;;
30647;SDS011;17683;53.360;9.736;2023-04-03T08:16:16;5.20;;;1.48;;
30647;SDS011;17683;53.360;9.736;2023-04-03T08:18:43;3.08;;;1.40;;
30647;SDS011;17683;53.360;9.736;2023-04-03T08:21:09;3.38;;;1.10;;
30647;SDS011;17683;53.360;9.736;2023-04-03T08:23:36;6.63;;;1.60;;
30647;SDS011;17683;53.360;9.736;2023-04-03T08:26:12;5.00;;;1.65;;
30647;SDS011;17683;53.360;9.736;2023-04-03T08:28:39;9.05;;;1.70;;
30647;SDS011;17683;53.360;9.736;2023-04-03T08:31:06;5.40;;;1.10;;
30647;SDS011;17683;53.360;9.736;2023-04-03T08:33:37;4.47;;;1.00;;
30647;SDS011;17683;53.360;9.736;2023-04-03T08:36:04;6.63;;;1.33;;
30647;SDS011;17683;53.360;9.736;2023-04-03T08:38:31;5.72;;;1.33;;
30647;SDS011;17683;53.360;9.736;2023-04-03T08:41:02;3.88;;;1.10;;
30647;SDS011;17683;53.360;9.736;2023-04-03T08:43:39;6.18;;;1.30;;
30647;SDS011;17683;53.360;9.736;2023-04-03T08:46:13;6.00;;;1.33;;
30647;SDS011;17683;53.360;9.736;2023-04-03T08:48:41;4.70;;;1.20;;
30647;SDS011;17683;53.360;9.736;2023-04-03T08:51:13;7.03;;;1.25;;
30647;SDS011;17683;53.360;9.736;2023-04-03T08:53:43;6.20;;;2.40;;
30647;SDS011;17683;53.360;9.736;2023-04-03T08:56:22;4.57;;;1.23;;
30647;SDS011;17683;53.360;9.736;2023-04-03T08:58:55;4.47;;;1.40;;
30647;SDS011;17683;53.360;9.736;2023-04-03T09:01:37;8.57;;;1.85;;
30647;SDS011;17683;53.360;9.736;2023-04-03T09:04:22;4.13;;;1.30;;
30647;SDS011;17683;53.360;9.736;2023-04-03T09:06:55;3.63;;;1.13;;
30647;SDS011;17683;53.360;9.736;2023-04-03T09:09:33;3.30;;;1.40;;
30647;SDS011;17683;53.360;9.736;2023-04-03T09:17:42;5.82;;;1.50;;
30647;SDS011;17683;53.360;9.736;2023-04-03T09:26:09;2.08;;;0.95;;
30647;SDS011;17683;53.360;9.736;2023-04-03T09:28:45;8.45;;;1.48;;
30647;SDS011;17683;53.360;9.736;2023-04-03T09:31:14;3.00;;;1.05;;
30647;SDS011;17683;53.360;9.736;2023-04-03T09:33:45;2.67;;;0.85;;
30647;SDS011;17683;53.360;9.736;2023-04-03T09:36:12;5.60;;;1.25;;
30647;SDS011;17683;53.360;9.736;2023-04-03T09:38:38;5.75;;;1.73;;
30647;SDS011;17683;53.360;9.736;2023-04-03T09:41:05;3.63;;;1.50;;
30647;SDS011;17683;53.360;9.736;2023-04-03T09:43:38;2.28;;;1.00;;
30647;SDS011;17683;53.360;9.736;2023-04-03T09:46:17;2.75;;;1.30;;
30647;SDS011;17683;53.360;9.736;2023-04-03T09:49:02;6.03;;;1.50;;
30647;SDS011;17683;53.360;9.736;2023-04-03T09:51:29;5.40;;;1.33;;
30647;SDS011;17683;53.360;9.736;2023-04-03T09:53:56;6.30;;;1.73;;
30647;SDS011;17683;53.360;9.736;2023-04-03T09:56:26;4.30;;;1.10;;
30647;SDS011;17683;53.360;9.736;2023-04-03T09:59:13;3.88;;;1.42;;
30647;SDS011;17683;53.360;9.736;2023-04-03T10:01:42;4.78;;;1.30;;
30647;SDS011;17683;53.360;9.736;2023-04-03T10:04:21;3.25;;;1.40;;
30647;SDS011;17683;53.360;9.736;2023-04-03T10:06:51;2.20;;;0.95;;
30647;SDS011;17683;53.360;9.736;2023-04-03T10:12:06;5.10;;;0.82;;
30647;SDS011;17683;53.360;9.736;2023-04-03T10:14:40;8.60;;;1.20;;
30647;SDS011;17683;53.360;9.736;2023-04-03T10:25:46;4.68;;;1.00;;
30647;SDS011;17683;53.360;9.736;2023-04-03T10:28:42;4.17;;;1.30;;
30647;SDS011;17683;53.360;9.736;2023-04-03T10:36:38;2.20;;;0.98;;
30647;SDS011;17683;53.360;9.736;2023-04-03T10:47:42;3.40;;;0.95;;
30647;SDS011;17683;53.360;9.736;2023-04-03T10:58:36;5.53;;;1.45;;
30647;SDS011;17683;53.360;9.736;2023-04-03T11:01:41;4.05;;;1.10;;
30647;SDS011;17683;53.360;9.736;2023-04-03T11:04:03;4.28;;;1.80;;
30647;SDS011;17683;53.360;9.736;2023-04-03T11:06:32;2.78;;;1.20;;
30647;SDS011;17683;53.360;9.736;2023-04-03T11:11:45;4.18;;;1.30;;
30647;SDS011;17683;53.360;9.736;2023-04-03T11:14:29;3.80;;;1.58;;
30647;SDS011;17683;53.360;9.736;2023-04-03T11:23:17;6.32;;;1.50;;
30647;SDS011;17683;53.360;9.736;2023-04-03T11:25:44;2.55;;;0.80;;
30647;SDS011;17683;53.360;9.736;2023-04-03T11:28:15;5.38;;;1.55;;
30647;SDS011;17683;53.360;9.736;2023-04-03T11:30:54;3.58;;;1.20;;
30647;SDS011;17683;53.360;9.736;2023-04-03T11:33:47;5.38;;;1.45;;
30647;SDS011;17683;53.360;9.736;2023-04-03T11:36:41;5.78;;;1.20;;
30647;SDS011;17683;53.360;9.736;2023-04-03T11:39:19;6.40;;;1.87;;
30647;SDS011;17683;53.360;9.736;2023-04-03T11:41:51;2.50;;;1.20;;
30647;SDS011;17683;53.360;9.736;2023-04-03T11:46:58;3.10;;;1.10;;
30647;SDS011;17683;53.360;9.736;2023-04-03T11:50:08;2.80;;;1.15;;
30647;SDS011;17683;53.360;9.736;2023-04-03T12:16:25;5.15;;;1.25;;
30647;SDS011;17683;53.360;9.736;2023-04-03T12:24:26;3.80;;;1.10;;
30647;SDS011;17683;53.360;9.736;2023-04-03T12:27:18;3.40;;;1.10;;
30647;SDS011;17683;53.360;9.736;2023-04-03T12:29:55;4.05;;;1.20;;
30647;SDS011;17683;53.360;9.736;2023-04-03T12:32:41;3.17;;;0.90;;
30647;SDS011;17683;53.360;9.736;2023-04-03T12:41:30;2.95;;;1.77;;
30647;SDS011;17683;53.360;9.736;2023-04-03T12:46:34;2.72;;;1.33;;
30647;SDS011;17683;53.360;9.736;2023-04-03T12:51:51;5.13;;;1.30;;
30647;SDS011;17683;53.360;9.736;2023-04-03T12:56:46;3.20;;;1.08;;
30647;SDS011;17683;53.360;9.736;2023-04-03T12:59:25;2.17;;;1.02;;
30647;SDS011;17683;53.360;9.736;2023-04-03T13:01:58;6.13;;;1.30;;
30647;SDS011;17683;53.360;9.736;2023-04-03T13:04:29;6.22;;;1.25;;
30647;SDS011;17683;53.360;9.736;2023-04-03T13:06:56;1.58;;;0.90;;
30647;SDS011;17683;53.360;9.736;2023-04-03T13:09:24;3.92;;;1.00;;
30647;SDS011;17683;53.360;9.736;2023-04-03T13:11:59;3.83;;;1.25;;
30647;SDS011;17683;53.360;9.736;2023-04-03T13:14:28;3.03;;;1.20;;
30647;SDS011;17683;53.360;9.736;2023-04-03T13:19:25;3.22;;;1.60;;
30647;SDS011;17683;53.360;9.736;2023-04-03T13:22:02;3.05;;;1.00;;
30647;SDS011;17683;53.360;9.736;2023-04-03T13:24:33;3.50;;;1.30;;
30647;SDS011;17683;53.360;9.736;2023-04-03T13:27:02;4.60;;;1.05;;
30647;SDS011;17683;53.360;9.736;2023-04-03T13:29:29;3.50;;;1.13;;
30647;SDS011;17683;53.360;9.736;2023-04-03T13:31:58;2.42;;;1.10;;
30647;SDS011;17683;53.360;9.736;2023-04-03T13:34:26;3.85;;;1.27;;
30647;SDS011;17683;53.360;9.736;2023-04-03T13:36:58;3.55;;;1.45;;
30647;SDS011;17683;53.360;9.736;2023-04-03T13:39:30;7.03;;;1.40;;
30647;SDS011;17683;53.360;9.736;2023-04-03T13:41:58;2.95;;;1.40;;
30647;SDS011;17683;53.360;9.736;2023-04-03T13:44:33;2.78;;;1.13;;
30647;SDS011;17683;53.360;9.736;2023-04-03T13:47:14;4.07;;;1.92;;
30647;SDS011;17683;53.360;9.736;2023-04-03T13:49:46;4.75;;;1.55;;
30647;SDS011;17683;53.360;9.736;2023-04-03T13:52:30;4.82;;;1.40;;
30647;SDS011;17683;53.360;9.736;2023-04-03T13:55:03;2.60;;;1.30;;
30647;SDS011;17683;53.360;9.736;2023-04-03T13:57:51;5.20;;;1.50;;
30647;SDS011;17683;53.360;9.736;2023-04-03T14:03:12;2.22;;;1.10;;
30647;SDS011;17683;53.360;9.736;2023-04-03T14:05:46;7.32;;;1.25;;
30647;SDS011;17683;53.360;9.736;2023-04-03T14:08:11;2.63;;;0.90;;
30647;SDS011;17683;53.360;9.736;2023-04-03T14:10:37;5.45;;;1.50;;
30647;SDS011;17683;53.360;9.736;2023-04-03T14:13:04;4.88;;;1.20;;
30647;SDS011;17683;53.360;9.736;2023-04-03T14:15:30;1.98;;;1.00;;
30647;SDS011;17683;53.360;9.736;2023-04-03T14:17:57;4.35;;;1.60;;
30647;SDS011;17683;53.360;9.736;2023-04-03T14:20:25;1.60;;;0.93;;
30647;SDS011;17683;53.360;9.736;2023-04-03T14:22:52;2.53;;;1.40;;
30647;SDS011;17683;53.360;9.736;2023-04-03T14:25:19;2.15;;;1.27;;
30647;SDS011;17683;53.360;9.736;2023-04-03T14:27:48;2.67;;;1.33;;
30647;SDS011;17683;53.360;9.736;2023-04-03T14:30:17;2.97;;;1.50;;
30647;SDS011;17683;53.360;9.736;2023-04-03T14:32:48;4.43;;;1.27;;
30647;SDS011;17683;53.360;9.736;2023-04-03T14:35:15;2.35;;;1.08;;
30647;SDS011;17683;53.360;9.736;2023-04-03T14:37:42;7.13;;;1.35;;
30647;SDS011;17683;53.360;9.736;2023-04-03T14:40:11;5.18;;;1.30;;
30647;SDS011;17683;53.360;9.736;2023-04-03T14:42:41;5.43;;;1.63;;
30647;SDS011;17683;53.360;9.736;2023-04-03T14:45:09;7.43;;;1.45;;
30647;SDS011;17683;53.360;9.736;2023-04-03T14:47:39;4.93;;;1.50;;
30647;SDS011;17683;53.360;9.736;2023-04-03T14:50:23;7.72;;;1.27;;
30647;SDS011;17683;53.360;9.736;2023-04-03T14:52:51;1.92;;;0.95;;
30647;SDS011;17683;53.360;9.736;2023-04-03T14:55:20;3.15;;;1.15;;
30647;SDS011;17683;53.360;9.736;2023-04-03T14:57:47;2.85;;;1.20;;
30647;SDS011;17683;53.360;9.736;2023-04-03T15:00:15;5.75;;;1.58;;
30647;SDS011;17683;53.360;9.736;2023-04-03T15:02:42;3.15;;;1.20;;
30647;SDS011;17683;53.360;9.736;2023-04-03T15:05:10;2.72;;;1.08;;
30647;SDS011;17683;53.360;9.736;2023-04-03T15:07:41;2.75;;;0.90;;
30647;SDS011;17683;53.360;9.736;2023-04-03T15:10:17;2.45;;;0.82;;
30647;SDS011;17683;53.360;9.736;2023-04-03T15:12:43;2.78;;;1.20;;
30647;SDS011;17683;53.360;9.736;2023-04-03T15:15:10;2.95;;;0.70;;
30647;SDS011;17683;53.360;9.736;2023-04-03T15:17:37;3.22;;;1.10;;
30647;SDS011;17683;53.360;9.736;2023-04-03T15:20:11;2.22;;;1.10;;
30647;SDS011;17683;53.360;9.736;2023-04-03T15:22:42;2.13;;;1.08;;
30647;SDS011;17683;53.360;9.736;2023-04-03T15:25:08;3.58;;;1.42;;
30647;SDS011;17683;53.360;9.736;2023-04-03T15:27:35;4.15;;;1.83;;
30647;SDS011;17683;53.360;9.736;2023-04-03T15:30:01;4.75;;;1.33;;
30647;SDS011;17683;53.360;9.736;2023-04-03T15:32:28;2.97;;;2.03;;
30647;SDS011;17683;53.360;9.736;2023-04-03T15:34:54;3.80;;;1.20;;
30647;SDS011;17683;53.360;9.736;2023-04-03T15:37:20;5.55;;;1.20;;
30647;SDS011;17683;53.360;9.736;2023-04-03T15:39:45;2.45;;;1.10;;
30647;SDS011;17683;53.360;9.736;2023-04-03T15:42:11;3.95;;;1.13;;
30647;SDS011;17683;53.360;9.736;2023-04-03T15:44:37;4.80;;;1.25;;
30647;SDS011;17683;53.360;9.736;2023-04-03T15:47:03;3.75;;;1.38;;
30647;SDS011;17683;53.360;9.736;2023-04-03T15:49:29;3.40;;;1.52;;
30647;SDS011;17683;53.360;9.736;2023-04-03T15:51:57;3.42;;;1.10;;
30647;SDS011;17683;53.360;9.736;2023-04-03T15:54:23;3.42;;;1.55;;
30647;SDS011;17683;53.360;9.736;2023-04-03T15:56:50;4.47;;;1.25;;
30647;SDS011;17683;53.360;9.736;2023-04-03T15:59:16;5.85;;;1.30;;
30647;SDS011;17683;53.360;9.736;2023-04-03T16:01:42;1.58;;;0.63;;
30647;SDS011;17683;53.360;9.736;2023-04-03T16:04:09;3.63;;;1.45;;
30647;SDS011;17683;53.360;9.736;2023-04-03T16:06:35;2.28;;;1.13;;
30647;SDS011;17683;53.360;9.736;2023-04-03T16:09:02;5.93;;;2.20;;
30647;SDS011;17683;53.360;9.736;2023-04-03T16:11:29;4.10;;;1.15;;
30647;SDS011;17683;53.360;9.736;2023-04-03T16:13:55;4.03;;;1.08;;
30647;SDS011;17683;53.360;9.736;2023-04-03T16:16:22;7.35;;;2.03;;
30647;SDS011;17683;53.360;9.736;2023-04-03T16:18:49;10.40;;;1.20;;
30647;SDS011;17683;53.360;9.736;2023-04-03T16:21:15;5.28;;;1.25;;
30647;SDS011;17683;53.360;9.736;2023-04-03T16:23:42;6.38;;;1.58;;
30647;SDS011;17683;53.360;9.736;2023-04-03T16:26:08;5.53;;;1.30;;
30647;SDS011;17683;53.360;9.736;2023-04-03T16:28:35;1.88;;;1.10;;
30647;SDS011;17683;53.360;9.736;2023-04-03T16:31:01;2.70;;;1.17;;
30647;SDS011;17683;53.360;9.736;2023-04-03T16:33:27;4.90;;;1.20;;
30647;SDS011;17683;53.360;9.736;2023-04-03T16:35:54;2.63;;;1.00;;
30647;SDS011;17683;53.360;9.736;2023-04-03T16:38:20;3.75;;;1.10;;
30647;SDS011;17683;53.360;9.736;2023-04-03T16:40:47;2.90;;;0.93;;
30647;SDS011;17683;53.360;9.736;2023-04-03T16:43:13;3.17;;;1.30;;
30647;SDS011;17683;53.360;9.736;2023-04-03T16:45:40;2.20;;;1.15;;
30647;SDS011;17683;53.360;9.736;2023-04-03T16:48:06;2.08;;;0.95;;
30647;SDS011;17683;53.360;9.736;2023-04-03T16:50:31;2.90;;;1.00;;
30647;SDS011;17683;53.360;9.736;2023-04-03T16:52:57;8.07;;;1.52;;